Anaktuvuk Pass Airport Anaktuvuk Pass US
ICAO: PAKP
IATA:
Category: Medium
Scheduled Services:

Elevation: 2102 ft
TransAlt. 18000 ft.

Airport Communications:
AWOS 3:135.75
ANCHORAGE CNTR:124.6
CTAF:122.8
DEADHORSE RDO:122.15

PAKP Zoom In..

If you have problems with the map follow the link
https://www.worldairports.se/pages/airport.php?
ICAO=PAKP

Runways:

(A) RW 02 length 4800 ft width 100 ft
---- / hdg 17

(B) RW 20 length 4800 ft width 100 ft
---- / hdg 197

Location; PAKP
Day. 18 / Time. 23.56 Zulu
* Altimeter: 29.84
* Temperature: 02° c. 35.6°f.
* Wind from: 230° Speed 05 kn.
Dewpoint: 00° c.
Visibility: 10 Statute Miles.
Clouds: Few 2400 ft.
Clouds: Scattered 3100 ft.
Clouds: Overcast 5000 ft.

PAKP 182356Z AUTO 23005KT 10SM FEW024 SCT031 OVC050 02/00 A2984 RMK AO2 SLP146 60002 T00220000 10044 20011 51004 FZRANO


Wind From 230°
Speed 05 kn.

 
 
jpsmedia.com for Web Design worldairports.se 2018   terms of use